Time;durP1;ratioP1;P1;durP2;ratioP2;P2;SDS_P1;SDS_P2;PMS_P1;PMS_P2;Temp;Humidity;BMP_temperature;BMP_pressure;BME280_temperature;BME280_humidity;BME280_pressure;Samples;Min_cycle;Max_cycle;Signal;HPM_P1;HPM_P2
2024/01/01 16:17:13;;;;;;;;;;;;;;;4.35;90.11;99265.68;104876;1300;545745;-88
2024/01/01 16:19:45;;;;;;;;;;;;;;;4.32;90.21;99263.42;106550;1295;24267;-85
2024/01/01 16:22:56;;;;;;;;;;;;;;;;;;;;;
2024/01/01 16:30:36;;;;;;;;;;;;;;;4.32;90.91;99261.52;101959;1285;10141213;-90
2024/01/01 16:38:26;;;;;;;;;;;;;;;4.39;90.78;99254.69;109426;1287;22555;-90
2024/01/01 16:42:10;;;;;;;;;;;;;;;;;;;;;
2024/01/01 16:50:05;;;;;;;;;;;;;;;;;;;;;
2024/01/01 17:00:51;;;;;;;;;;;;;;;4.42;91.33;99260.61;107550;1308;22604;-91
2024/01/01 17:04:30;;;;;;;;;;;;;;;4.38;91.50;99262.02;107194;1308;22507;-89
2024/01/01 17:08:43;;;;;;;;;;;;;;;4.40;91.61;99260.09;106672;1311;22518;-91
2024/01/01 17:18:10;;;;;;;;;;;;;;;4.34;92.11;99274.41;106926;1301;22862;-90
2024/01/01 17:20:37;;;;;;;;;;;;;;;4.32;92.17;99279.98;108371;1301;22501;-89
2024/01/01 17:23:17;;;;;;;;;;;;;;;4.33;92.52;99278.93;108121;1301;22548;-88
2024/01/01 17:29:53;;;;;;;;;;;;;;;4.31;92.60;99281.38;109081;1291;22579;-90
2024/01/01 17:36:48;;;;;;;;;;;;;;;4.38;93.00;99283.46;109264;1294;22550;-89
2024/01/01 17:39:44;;;;;;;;;;;;;;;4.40;93.14;99281.36;109696;1288;22633;-88
2024/01/01 17:42:12;;;;;;;;;;;;;;;4.44;93.09;99286.05;109658;1289;22587;-88
2024/01/01 17:44:47;;;;;;;;;;;;;;;4.47;92.83;99286.92;109790;1282;22473;-89
2024/01/01 17:52:37;;;;;;;;;;;;;;;4.41;92.98;99292.52;108750;1286;22474;-90
2024/01/01 17:56:09;;;;;;;;;;;;;;;4.36;93.37;99296.53;107547;1291;22545;-89
2024/01/01 19:19:20;;;;;;;;;;;;;;;4.42;94.51;99338.19;104467;1295;24363;-90
2024/01/01 19:26:20;;;;;;;;;;;;;;;4.42;94.36;99336.80;104248;1303;24397;-85
2024/01/01 19:28:47;;;;;;;;;;;;;;;4.42;94.75;99343.42;104008;1311;25575;-86
2024/01/01 19:31:13;;;;;;;;;;;;;;;4.42;94.59;99345.16;104418;1311;22610;-86
2024/01/01 19:33:39;;;;;;;;;;;;;;;4.42;94.59;99347.60;104291;1311;23510;-85
2024/01/01 19:36:18;;;;;;;;;;;;;;;4.39;94.47;99350.40;104762;1305;22544;-88
2024/01/01 19:50:11;;;;;;;;;;;;;;;4.41;94.84;99348.83;104917;1304;558251;-84
2024/01/01 19:52:38;;;;;;;;;;;;;;;4.39;94.60;99355.80;106577;1287;167672;-86
2024/01/01 19:55:05;;;;;;;;;;;;;;;4.36;94.64;99357.55;106463;1287;22523;-89
2024/01/01 19:57:34;;;;;;;;;;;;;;;4.36;94.92;99358.06;106501;1285;22782;-90
2024/01/01 20:00:31;;;;;;;;;;;;;;;4.35;94.84;99361.02;106885;1280;24350;-87
2024/01/01 20:02:58;;;;;;;;;;;;;;;4.33;94.91;99363.83;106892;1280;24199;-86
2024/01/01 20:05:25;;;;;;;;;;;;;;;4.31;94.93;99365.39;106945;1280;25307;-86
2024/01/01 20:08:39;;;;;;;;;;;;;;;4.31;95.06;99364.01;106844;1281;22522;-85
2024/01/01 20:11:20;;;;;;;;;;;;;;;4.29;94.93;99358.59;107700;1280;22514;-86
2024/01/01 20:13:49;;;;;;;;;;;;;;;4.27;95.16;99358.60;106996;1276;23789;-86
2024/01/01 20:16:23;;;;;;;;;;;;;;;4.28;95.11;99361.05;110064;1280;22428;-87
2024/01/01 20:18:52;;;;;;;;;;;;;;;4.27;95.10;99362.41;110103;1276;22428;-86
2024/01/01 20:24:31;;;;;;;;;;;;;;;4.30;95.24;99360.68;110147;1281;22414;-85
2024/01/01 20:31:07;;;;;;;;;;;;;;;4.32;95.04;99361.73;110205;1280;22409;-86
2024/01/01 20:34:00;;;;;;;;;;;;;;;4.33;95.13;99363.30;110104;1281;22437;-89
2024/01/01 20:36:29;;;;;;;;;;;;;;;4.36;95.15;99364.86;110161;1280;22413;-85
2024/01/01 20:38:57;;;;;;;;;;;;;;;4.37;95.17;99365.56;110034;1280;23145;-86
2024/01/01 20:51:10;;;;;;;;;;;;;;;4.37;95.03;99370.97;109882;1286;22475;-88
2024/01/01 20:53:58;;;;;;;;;;;;;;;4.36;95.16;99370.09;109501;1289;23146;-84
2024/01/01 20:56:25;;;;;;;;;;;;;;;4.37;95.17;99370.80;109740;1286;22420;-84
2024/01/01 20:58:54;;;;;;;;;;;;;;;4.39;95.21;99371.66;109915;1279;22435;-85
2024/01/01 21:01:24;;;;;;;;;;;;;;;4.39;95.10;99377.07;110202;1280;22423;-86
2024/01/01 21:03:52;;;;;;;;;;;;;;;4.39;95.06;99380.39;110406;1272;22454;-84
2024/01/01 21:06:22;;;;;;;;;;;;;;;4.38;95.06;99382.47;110265;1278;22448;-86
2024/01/01 21:08:51;;;;;;;;;;;;;;;4.38;95.07;99377.07;109984;1280;22481;-83
2024/01/01 21:11:20;;;;;;;;;;;;;;;4.37;95.08;99379.34;109946;1285;22495;-85
2024/01/01 21:13:47;;;;;;;;;;;;;;;4.37;95.15;99377.23;109927;1284;22457;-84
2024/01/01 21:16:14;;;;;;;;;;;;;;;4.38;95.14;99380.73;109933;1280;23262;-82
2024/01/01 21:18:44;;;;;;;;;;;;;;;4.39;95.21;99381.77;110015;1284;22430;-86
2024/01/01 21:21:16;;;;;;;;;;;;;;;4.42;95.29;99388.57;109892;1274;22467;-87
2024/01/01 21:23:44;;;;;;;;;;;;;;;4.44;95.24;99383.70;109841;1281;22446;-86
2024/01/01 21:26:59;;;;;;;;;;;;;;;4.52;95.29;99390.67;109933;1284;22460;-84
2024/01/01 21:29:26;;;;;;;;;;;;;;;4.53;94.92;99388.40;109925;1283;22590;-83
2024/01/01 21:31:53;;;;;;;;;;;;;;;4.52;94.88;99389.98;109785;1286;22496;-85
2024/01/01 21:34:20;;;;;;;;;;;;;;;4.51;94.81;99393.45;109769;1280;22451;-85
2024/01/01 21:36:48;;;;;;;;;;;;;;;4.52;95.01;99397.13;109756;1286;22431;-86
2024/01/01 21:39:15;;;;;;;;;;;;;;;4.55;95.01;99397.81;109767;1284;22431;-87
2024/01/01 21:41:44;;;;;;;;;;;;;;;4.55;94.64;99399.56;109800;1286;23124;-85
2024/01/01 21:44:11;;;;;;;;;;;;;;;4.57;95.03;99403.05;109322;1286;22416;-85
2024/01/01 21:47:02;;;;;;;;;;;;;;;4.60;94.91;99397.29;109783;1283;22421;-86
2024/01/01 21:49:49;;;;;;;;;;;;;;;4.61;94.81;99399.20;109913;1283;23188;-87
2024/01/01 21:52:52;;;;;;;;;;;;;;;4.60;94.60;99398.51;109949;1282;22426;-86
2024/01/01 21:55:23;;;;;;;;;;;;;;;4.61;94.82;99404.79;109598;1289;22439;-86
2024/01/01 21:57:51;;;;;;;;;;;;;;;4.63;94.72;99405.48;109603;1289;23316;-85
2024/01/01 22:00:19;;;;;;;;;;;;;;;4.64;94.58;99403.73;109529;1289;23282;-86
2024/01/01 22:02:49;;;;;;;;;;;;;;;4.61;94.61;99401.13;109735;1284;23324;-85
2024/01/01 22:05:18;;;;;;;;;;;;;;;4.61;94.83;99402.69;109924;1279;22428;-85
2024/01/01 22:07:51;;;;;;;;;;;;;;;4.63;94.79;99403.21;109952;1283;22455;-84
2024/01/01 22:10:19;;;;;;;;;;;;;;;4.67;94.99;99403.73;109974;1284;22418;-85
2024/01/01 22:12:46;;;;;;;;;;;;;;;4.70;94.90;99403.55;110051;1274;22468;-85
2024/01/01 22:15:13;;;;;;;;;;;;;;;4.69;94.52;99397.98;110330;1276;22392;-85
2024/01/01 22:17:44;;;;;;;;;;;;;;;4.68;94.91;99400.23;110461;1277;22457;-84
2024/01/01 22:20:12;;;;;;;;;;;;;;;4.71;94.92;99399.55;110281;1276;22549;-86
2024/01/01 22:22:39;;;;;;;;;;;;;;;4.69;94.55;99401.11;110304;1275;22461;-84
2024/01/01 22:25:07;;;;;;;;;;;;;;;4.68;94.69;99397.11;110170;1277;22394;-85
2024/01/01 22:27:33;;;;;;;;;;;;;;;4.66;94.63;99395.52;110128;1277;22472;-86
2024/01/01 22:30:00;;;;;;;;;;;;;;;4.63;94.62;99391.01;110259;1277;22417;-85
2024/01/01 22:32:27;;;;;;;;;;;;;;;4.62;94.94;99392.92;110412;1273;22437;-87
2024/01/01 22:34:56;;;;;;;;;;;;;;;4.64;95.19;99392.91;110273;1276;23304;-85
2024/01/01 22:37:25;;;;;;;;;;;;;;;4.67;95.03;99392.58;110292;1272;22443;-85
2024/01/01 22:39:52;;;;;;;;;;;;;;;4.64;94.84;99393.10;110437;1277;22387;-85
2024/01/01 22:42:18;;;;;;;;;;;;;;;4.60;94.96;99394.67;110220;1277;22404;-85
2024/01/01 22:44:46;;;;;;;;;;;;;;;4.62;95.49;99395.02;110191;1277;23142;-85
2024/01/01 22:47:13;;;;;;;;;;;;;;;4.68;95.46;99403.89;110202;1277;22393;-84
2024/01/01 22:49:40;;;;;;;;;;;;;;;4.74;95.34;99402.86;110267;1272;22413;-83
2024/01/01 22:52:07;;;;;;;;;;;;;;;4.75;95.24;99402.33;109969;1282;22713;-84
2024/01/01 22:54:36;;;;;;;;;;;;;;;4.77;95.28;99403.20;110041;1275;22438;-84
2024/01/01 22:57:02;;;;;;;;;;;;;;;4.80;95.18;99405.64;109990;1279;22432;-85
2024/01/01 22:59:30;;;;;;;;;;;;;;;4.80;95.00;99402.85;110001;1279;22435;-85
2024/01/01 23:01:57;;;;;;;;;;;;;;;4.83;94.96;99399.35;110070;1282;22464;-84
2024/01/01 23:04:24;;;;;;;;;;;;;;;4.82;94.70;99399.17;109916;1284;23208;-83
2024/01/01 23:06:51;;;;;;;;;;;;;;;4.84;94.75;99398.84;109800;1281;22445;-83
2024/01/01 23:09:18;;;;;;;;;;;;;;;4.86;94.50;99405.10;109729;1282;22485;-85
2024/01/01 23:11:45;;;;;;;;;;;;;;;4.85;94.55;99400.23;109878;1279;22447;-85
2024/01/01 23:14:13;;;;;;;;;;;;;;;4.86;94.55;99405.27;109388;1292;22475;-83
2024/01/01 23:16:40;;;;;;;;;;;;;;;4.82;94.16;99405.80;109482;1289;22420;-83
2024/01/01 23:19:08;;;;;;;;;;;;;;;4.76;94.41;99400.42;109375;1292;22451;-85
2024/01/01 23:21:36;;;;;;;;;;;;;;;4.78;94.67;99401.81;109448;1292;22465;-85
2024/01/01 23:24:04;;;;;;;;;;;;;;;4.79;94.62;99399.88;109337;1292;22452;-85
2024/01/01 23:26:33;;;;;;;;;;;;;;;4.79;94.41;99394.66;109312;1292;22525;-85
2024/01/01 23:29:03;;;;;;;;;;;;;;;4.76;94.21;99392.73;109450;1288;23212;-83
2024/01/01 23:31:42;;;;;;;;;;;;;;;4.67;94.06;99396.92;109849;1284;22565;-86
2024/01/01 23:34:18;;;;;;;;;;;;;;;4.64;94.34;99402.52;109881;1283;22466;-85
2024/01/01 23:36:49;;;;;;;;;;;;;;;4.61;94.24;99401.82;109744;1287;23187;-84
2024/01/01 23:39:18;;;;;;;;;;;;;;;4.57;94.32;99400.42;109865;1282;23318;-84
2024/01/01 23:41:45;;;;;;;;;;;;;;;4.57;94.45;99401.47;109790;1286;23225;-84
2024/01/01 23:44:12;;;;;;;;;;;;;;;4.50;94.11;99404.10;109794;1283;22427;-86
2024/01/01 23:46:59;;;;;;;;;;;;;;;4.44;94.49;99405.83;109748;1286;22600;-84
2024/01/01 23:49:31;;;;;;;;;;;;;;;4.43;94.45;99405.48;109757;1286;22501;-85
2024/01/01 23:51:59;;;;;;;;;;;;;;;4.43;94.64;99406.88;109405;1291;22441;-87
2024/01/01 23:54:27;;;;;;;;;;;;;;;4.42;94.67;99408.63;109449;1286;23216;-85
2024/01/01 23:56:54;;;;;;;;;;;;;;;4.43;94.70;99406.54;109486;1286;22469;-84
2024/01/01 23:59:22;;;;;;;;;;;;;;;4.41;94.46;99409.67;109561;1289;22445;-84
